sensor_id;sensor_type;location;lat;lon;timestamp;P1;durP1;ratioP1;P2;durP2;ratioP2
20122;SDS011;10222;50.848;4.336;2024-03-23T00:55:53;7.60;;;2.87;;
20122;SDS011;10222;50.848;4.336;2024-03-23T00:58:19;11.13;;;2.50;;
20122;SDS011;10222;50.848;4.336;2024-03-23T01:00:46;9.07;;;2.80;;
20122;SDS011;10222;50.848;4.336;2024-03-23T01:03:12;9.63;;;2.90;;
20122;SDS011;10222;50.848;4.336;2024-03-23T01:05:38;7.43;;;2.87;;
20122;SDS011;10222;50.848;4.336;2024-03-23T01:08:05;8.77;;;2.90;;
20122;SDS011;10222;50.848;4.336;2024-03-23T01:10:32;10.33;;;2.43;;
20122;SDS011;10222;50.848;4.336;2024-03-23T01:12:58;8.10;;;2.30;;
20122;SDS011;10222;50.848;4.336;2024-03-23T01:15:24;5.73;;;2.27;;
20122;SDS011;10222;50.848;4.336;2024-03-23T01:17:50;10.10;;;3.10;;
20122;SDS011;10222;50.848;4.336;2024-03-23T01:20:17;8.83;;;2.53;;
20122;SDS011;10222;50.848;4.336;2024-03-23T01:22:43;7.87;;;2.47;;
20122;SDS011;10222;50.848;4.336;2024-03-23T01:25:09;9.33;;;2.60;;
20122;SDS011;10222;50.848;4.336;2024-03-23T01:27:35;8.40;;;2.30;;
20122;SDS011;10222;50.848;4.336;2024-03-23T01:30:01;11.23;;;3.20;;
20122;SDS011;10222;50.848;4.336;2024-03-23T01:32:27;12.43;;;2.90;;
20122;SDS011;10222;50.848;4.336;2024-03-23T01:34:53;13.00;;;2.93;;
20122;SDS011;10222;50.848;4.336;2024-03-23T01:37:19;19.20;;;3.60;;
20122;SDS011;10222;50.848;4.336;2024-03-23T01:39:45;10.53;;;3.80;;
20122;SDS011;10222;50.848;4.336;2024-03-23T01:42:13;12.53;;;3.50;;
20122;SDS011;10222;50.848;4.336;2024-03-23T01:44:39;11.97;;;3.67;;
20122;SDS011;10222;50.848;4.336;2024-03-23T01:47:06;10.00;;;3.50;;
20122;SDS011;10222;50.848;4.336;2024-03-23T01:49:32;11.57;;;3.73;;
20122;SDS011;10222;50.848;4.336;2024-03-23T01:51:59;12.67;;;4.00;;
20122;SDS011;10222;50.848;4.336;2024-03-23T01:54:25;11.93;;;4.17;;
20122;SDS011;10222;50.848;4.336;2024-03-23T01:56:51;10.73;;;3.77;;
20122;SDS011;10222;50.848;4.336;2024-03-23T01:59:18;11.13;;;4.30;;
20122;SDS011;10222;50.848;4.336;2024-03-23T02:01:47;11.87;;;4.00;;
20122;SDS011;10222;50.848;4.336;2024-03-23T02:04:12;6.90;;;3.20;;
20122;SDS011;10222;50.848;4.336;2024-03-23T02:06:38;9.93;;;3.57;;
20122;SDS011;10222;50.848;4.336;2024-03-23T02:09:04;11.00;;;3.70;;
20122;SDS011;10222;50.848;4.336;2024-03-23T02:11:31;11.63;;;4.33;;
20122;SDS011;10222;50.848;4.336;2024-03-23T02:13:57;9.50;;;4.07;;
20122;SDS011;10222;50.848;4.336;2024-03-23T02:16:25;12.30;;;4.27;;
20122;SDS011;10222;50.848;4.336;2024-03-23T02:18:51;8.67;;;3.90;;
20122;SDS011;10222;50.848;4.336;2024-03-23T02:21:17;12.63;;;4.67;;
20122;SDS011;10222;50.848;4.336;2024-03-23T02:23:43;12.77;;;5.07;;
20122;SDS011;10222;50.848;4.336;2024-03-23T02:26:09;14.67;;;4.80;;
20122;SDS011;10222;50.848;4.336;2024-03-23T02:28:35;13.47;;;4.67;;
20122;SDS011;10222;50.848;4.336;2024-03-23T02:31:01;7.53;;;4.30;;
20122;SDS011;10222;50.848;4.336;2024-03-23T02:33:27;11.93;;;5.23;;
20122;SDS011;10222;50.848;4.336;2024-03-23T02:35:55;16.43;;;5.80;;
20122;SDS011;10222;50.848;4.336;2024-03-23T02:38:22;15.57;;;6.27;;
20122;SDS011;10222;50.848;4.336;2024-03-23T02:40:49;21.17;;;6.47;;
20122;SDS011;10222;50.848;4.336;2024-03-23T02:43:15;16.63;;;6.53;;
20122;SDS011;10222;50.848;4.336;2024-03-23T02:45:41;18.93;;;6.87;;
20122;SDS011;10222;50.848;4.336;2024-03-23T02:48:07;17.80;;;6.63;;
20122;SDS011;10222;50.848;4.336;2024-03-23T02:50:33;14.90;;;6.73;;
20122;SDS011;10222;50.848;4.336;2024-03-23T02:52:59;11.40;;;5.80;;
20122;SDS011;10222;50.848;4.336;2024-03-23T02:55:25;18.63;;;6.63;;
20122;SDS011;10222;50.848;4.336;2024-03-23T02:57:51;20.83;;;7.10;;
20122;SDS011;10222;50.848;4.336;2024-03-23T03:00:17;14.67;;;6.87;;
20122;SDS011;10222;50.848;4.336;2024-03-23T03:02:43;15.23;;;6.77;;
20122;SDS011;10222;50.848;4.336;2024-03-23T03:05:09;16.77;;;6.53;;
20122;SDS011;10222;50.848;4.336;2024-03-23T03:07:36;14.33;;;6.67;;
20122;SDS011;10222;50.848;4.336;2024-03-23T03:10:04;18.00;;;7.40;;
20122;SDS011;10222;50.848;4.336;2024-03-23T03:12:31;18.90;;;7.17;;
20122;SDS011;10222;50.848;4.336;2024-03-23T03:14:57;16.83;;;6.67;;
20122;SDS011;10222;50.848;4.336;2024-03-23T03:17:23;19.40;;;7.20;;
20122;SDS011;10222;50.848;4.336;2024-03-23T03:19:49;15.47;;;6.23;;
20122;SDS011;10222;50.848;4.336;2024-03-23T03:22:20;19.60;;;7.10;;
20122;SDS011;10222;50.848;4.336;2024-03-23T03:24:46;16.23;;;6.03;;
20122;SDS011;10222;50.848;4.336;2024-03-23T03:27:12;14.93;;;6.43;;
20122;SDS011;10222;50.848;4.336;2024-03-23T03:29:38;17.60;;;6.67;;
20122;SDS011;10222;50.848;4.336;2024-03-23T03:32:04;17.33;;;6.87;;
20122;SDS011;10222;50.848;4.336;2024-03-23T03:34:31;14.13;;;6.70;;
20122;SDS011;10222;50.848;4.336;2024-03-23T03:36:57;18.13;;;6.40;;
20122;SDS011;10222;50.848;4.336;2024-03-23T03:39:23;21.40;;;6.87;;
20122;SDS011;10222;50.848;4.336;2024-03-23T03:41:50;16.80;;;7.07;;
20122;SDS011;10222;50.848;4.336;2024-03-23T03:44:16;18.30;;;6.63;;
20122;SDS011;10222;50.848;4.336;2024-03-23T03:46:42;13.57;;;6.47;;
20122;SDS011;10222;50.848;4.336;2024-03-23T03:49:08;15.23;;;7.27;;
20122;SDS011;10222;50.848;4.336;2024-03-23T03:51:34;20.10;;;7.23;;
20122;SDS011;10222;50.848;4.336;2024-03-23T03:54:00;19.17;;;7.70;;
20122;SDS011;10222;50.848;4.336;2024-03-23T03:56:27;19.80;;;7.97;;
20122;SDS011;10222;50.848;4.336;2024-03-23T03:58:54;26.53;;;7.97;;
20122;SDS011;10222;50.848;4.336;2024-03-23T04:01:20;16.47;;;7.27;;
20122;SDS011;10222;50.848;4.336;2024-03-23T04:03:46;21.57;;;8.00;;
20122;SDS011;10222;50.848;4.336;2024-03-23T04:06:13;20.03;;;7.60;;
20122;SDS011;10222;50.848;4.336;2024-03-23T04:08:44;17.77;;;8.10;;
20122;SDS011;10222;50.848;4.336;2024-03-23T04:11:10;16.63;;;7.17;;
20122;SDS011;10222;50.848;4.336;2024-03-23T04:13:36;23.30;;;8.10;;
20122;SDS011;10222;50.848;4.336;2024-03-23T04:16:02;18.53;;;7.63;;
20122;SDS011;10222;50.848;4.336;2024-03-23T04:18:28;18.60;;;7.13;;
20122;SDS011;10222;50.848;4.336;2024-03-23T04:20:55;13.27;;;5.57;;
20122;SDS011;10222;50.848;4.336;2024-03-23T04:23:22;15.43;;;6.50;;
20122;SDS011;10222;50.848;4.336;2024-03-23T04:25:48;14.33;;;6.10;;
20122;SDS011;10222;50.848;4.336;2024-03-23T04:28:14;16.60;;;6.10;;
20122;SDS011;10222;50.848;4.336;2024-03-23T04:30:40;12.50;;;4.70;;
20122;SDS011;10222;50.848;4.336;2024-03-23T04:33:06;16.63;;;5.37;;
20122;SDS011;10222;50.848;4.336;2024-03-23T04:35:32;13.43;;;4.60;;
20122;SDS011;10222;50.848;4.336;2024-03-23T04:37:58;20.17;;;4.87;;
20122;SDS011;10222;50.848;4.336;2024-03-23T04:40:24;10.37;;;4.53;;
20122;SDS011;10222;50.848;4.336;2024-03-23T04:42:50;12.20;;;5.00;;
20122;SDS011;10222;50.848;4.336;2024-03-23T04:45:16;12.97;;;3.90;;
20122;SDS011;10222;50.848;4.336;2024-03-23T04:47:42;12.13;;;4.03;;
20122;SDS011;10222;50.848;4.336;2024-03-23T04:50:08;12.90;;;4.20;;
20122;SDS011;10222;50.848;4.336;2024-03-23T04:52:37;10.63;;;4.57;;
20122;SDS011;10222;50.848;4.336;2024-03-23T04:55:04;16.37;;;5.37;;
20122;SDS011;10222;50.848;4.336;2024-03-23T04:57:30;13.90;;;4.83;;
20122;SDS011;10222;50.848;4.336;2024-03-23T04:59:56;11.80;;;4.93;;
20122;SDS011;10222;50.848;4.336;2024-03-23T05:02:23;16.63;;;4.90;;
20122;SDS011;10222;50.848;4.336;2024-03-23T05:04:50;7.70;;;4.13;;
20122;SDS011;10222;50.848;4.336;2024-03-23T05:07:16;16.57;;;4.90;;
20122;SDS011;10222;50.848;4.336;2024-03-23T05:09:42;12.20;;;4.53;;
20122;SDS011;10222;50.848;4.336;2024-03-23T05:12:08;10.30;;;5.00;;
20122;SDS011;10222;50.848;4.336;2024-03-23T05:14:34;15.40;;;5.37;;
20122;SDS011;10222;50.848;4.336;2024-03-23T05:17:00;12.43;;;5.53;;
20122;SDS011;10222;50.848;4.336;2024-03-23T05:19:27;9.70;;;4.77;;
20122;SDS011;10222;50.848;4.336;2024-03-23T05:21:53;12.77;;;4.73;;
20122;SDS011;10222;50.848;4.336;2024-03-23T05:24:19;9.90;;;4.50;;
20122;SDS011;10222;50.848;4.336;2024-03-23T05:26:45;12.90;;;4.77;;
20122;SDS011;10222;50.848;4.336;2024-03-23T05:29:11;17.57;;;4.90;;
20122;SDS011;10222;50.848;4.336;2024-03-23T05:31:38;14.80;;;4.57;;
20122;SDS011;10222;50.848;4.336;2024-03-23T05:34:06;10.93;;;4.77;;
20122;SDS011;10222;50.848;4.336;2024-03-23T05:36:32;14.70;;;4.73;;
20122;SDS011;10222;50.848;4.336;2024-03-23T05:38:58;9.63;;;4.40;;
20122;SDS011;10222;50.848;4.336;2024-03-23T05:41:24;11.80;;;5.13;;
20122;SDS011;10222;50.848;4.336;2024-03-23T05:43:50;10.77;;;4.40;;
20122;SDS011;10222;50.848;4.336;2024-03-23T05:46:16;8.53;;;3.80;;
20122;SDS011;10222;50.848;4.336;2024-03-23T05:48:43;14.30;;;4.10;;
20122;SDS011;10222;50.848;4.336;2024-03-23T05:51:09;12.67;;;3.60;;
20122;SDS011;10222;50.848;4.336;2024-03-23T05:53:36;9.60;;;3.40;;
20122;SDS011;10222;50.848;4.336;2024-03-23T05:56:02;9.47;;;3.47;;
20122;SDS011;10222;50.848;4.336;2024-03-23T05:58:29;10.27;;;3.00;;
20122;SDS011;10222;50.848;4.336;2024-03-23T06:00:58;13.97;;;3.37;;
20122;SDS011;10222;50.848;4.336;2024-03-23T06:03:28;11.33;;;3.50;;
20122;SDS011;10222;50.848;4.336;2024-03-23T06:05:54;9.83;;;2.70;;
20122;SDS011;10222;50.848;4.336;2024-03-23T06:08:21;10.13;;;2.57;;
20122;SDS011;10222;50.848;4.336;2024-03-23T06:10:50;9.30;;;2.70;;
20122;SDS011;10222;50.848;4.336;2024-03-23T06:13:16;6.63;;;2.03;;
20122;SDS011;10222;50.848;4.336;2024-03-23T06:15:48;6.83;;;2.10;;
20122;SDS011;10222;50.848;4.336;2024-03-23T06:18:14;7.83;;;2.40;;
20122;SDS011;10222;50.848;4.336;2024-03-23T06:20:40;7.20;;;2.13;;
20122;SDS011;10222;50.848;4.336;2024-03-23T06:23:06;4.37;;;1.70;;
20122;SDS011;10222;50.848;4.336;2024-03-23T06:25:33;8.37;;;2.00;;
20122;SDS011;10222;50.848;4.336;2024-03-23T06:28:00;6.90;;;1.93;;
20122;SDS011;10222;50.848;4.336;2024-03-23T06:30:28;12.93;;;2.53;;
20122;SDS011;10222;50.848;4.336;2024-03-23T06:32:54;7.07;;;1.87;;
20122;SDS011;10222;50.848;4.336;2024-03-23T06:35:20;9.67;;;2.10;;
20122;SDS011;10222;50.848;4.336;2024-03-23T06:37:46;7.43;;;1.67;;
20122;SDS011;10222;50.848;4.336;2024-03-23T06:40:12;8.90;;;1.80;;
20122;SDS011;10222;50.848;4.336;2024-03-23T06:42:38;11.97;;;2.23;;
20122;SDS011;10222;50.848;4.336;2024-03-23T06:45:05;10.17;;;2.33;;
20122;SDS011;10222;50.848;4.336;2024-03-23T06:47:31;11.13;;;1.97;;
20122;SDS011;10222;50.848;4.336;2024-03-23T06:49:58;10.67;;;1.97;;
20122;SDS011;10222;50.848;4.336;2024-03-23T06:52:27;5.97;;;1.63;;
20122;SDS011;10222;50.848;4.336;2024-03-23T06:54:53;10.87;;;2.57;;
20122;SDS011;10222;50.848;4.336;2024-03-23T06:57:19;10.10;;;2.27;;
20122;SDS011;10222;50.848;4.336;2024-03-23T06:59:45;8.07;;;1.93;;
20122;SDS011;10222;50.848;4.336;2024-03-23T07:02:11;10.17;;;2.53;;
20122;SDS011;10222;50.848;4.336;2024-03-23T07:04:37;12.63;;;2.13;;
20122;SDS011;10222;50.848;4.336;2024-03-23T07:07:06;4.87;;;1.30;;
20122;SDS011;10222;50.848;4.336;2024-03-23T07:09:32;6.43;;;1.53;;
20122;SDS011;10222;50.848;4.336;2024-03-23T07:11:58;4.53;;;1.40;;
20122;SDS011;10222;50.848;4.336;2024-03-23T07:14:25;7.93;;;1.67;;
20122;SDS011;10222;50.848;4.336;2024-03-23T07:16:51;8.53;;;2.13;;
20122;SDS011;10222;50.848;4.336;2024-03-23T07:19:18;11.37;;;2.60;;
20122;SDS011;10222;50.848;4.336;2024-03-23T07:21:46;4.80;;;2.03;;
20122;SDS011;10222;50.848;4.336;2024-03-23T07:24:13;8.10;;;2.33;;
20122;SDS011;10222;50.848;4.336;2024-03-23T07:26:44;13.23;;;2.00;;
20122;SDS011;10222;50.848;4.336;2024-03-23T07:29:10;9.70;;;2.43;;
20122;SDS011;10222;50.848;4.336;2024-03-23T07:31:36;9.97;;;2.53;;
20122;SDS011;10222;50.848;4.336;2024-03-23T07:34:03;13.17;;;2.40;;
20122;SDS011;10222;50.848;4.336;2024-03-23T07:36:31;8.20;;;2.43;;
20122;SDS011;10222;50.848;4.336;2024-03-23T07:38:57;10.43;;;2.47;;
20122;SDS011;10222;50.848;4.336;2024-03-23T07:41:23;7.90;;;2.13;;
20122;SDS011;10222;50.848;4.336;2024-03-23T07:43:50;6.87;;;2.10;;
20122;SDS011;10222;50.848;4.336;2024-03-23T07:46:16;10.23;;;2.70;;
20122;SDS011;10222;50.848;4.336;2024-03-23T07:48:43;9.07;;;2.27;;
20122;SDS011;10222;50.848;4.336;2024-03-23T07:51:10;10.93;;;2.27;;
20122;SDS011;10222;50.848;4.336;2024-03-23T07:53:37;9.13;;;2.50;;
20122;SDS011;10222;50.848;4.336;2024-03-23T07:56:05;8.57;;;2.40;;
20122;SDS011;10222;50.848;4.336;2024-03-23T07:58:31;15.77;;;3.40;;
20122;SDS011;10222;50.848;4.336;2024-03-23T08:03:56;6.03;;;1.97;;
20122;SDS011;10222;50.848;4.336;2024-03-23T08:06:23;11.97;;;2.57;;
20122;SDS011;10222;50.848;4.336;2024-03-23T08:08:52;7.23;;;2.73;;
20122;SDS011;10222;50.848;4.336;2024-03-23T08:11:27;11.93;;;2.40;;
20122;SDS011;10222;50.848;4.336;2024-03-23T08:13:54;14.97;;;3.40;;
20122;SDS011;10222;50.848;4.336;2024-03-23T08:16:20;7.03;;;2.20;;
20122;SDS011;10222;50.848;4.336;2024-03-23T08:18:46;11.27;;;2.23;;
20122;SDS011;10222;50.848;4.336;2024-03-23T08:21:12;10.63;;;2.33;;
20122;SDS011;10222;50.848;4.336;2024-03-23T08:23:38;10.90;;;2.63;;
20122;SDS011;10222;50.848;4.336;2024-03-23T08:28:30;15.20;;;2.07;;
20122;SDS011;10222;50.848;4.336;2024-03-23T08:30:56;7.07;;;2.00;;
20122;SDS011;10222;50.848;4.336;2024-03-23T08:33:23;9.87;;;2.23;;
20122;SDS011;10222;50.848;4.336;2024-03-23T08:35:53;16.97;;;2.40;;
20122;SDS011;10222;50.848;4.336;2024-03-23T08:38:19;6.77;;;2.53;;
20122;SDS011;10222;50.848;4.336;2024-03-23T08:40:45;11.03;;;1.83;;
20122;SDS011;10222;50.848;4.336;2024-03-23T08:43:11;7.40;;;1.90;;
20122;SDS011;10222;50.848;4.336;2024-03-23T08:45:37;9.27;;;2.27;;
20122;SDS011;10222;50.848;4.336;2024-03-23T08:48:03;8.77;;;2.13;;
20122;SDS011;10222;50.848;4.336;2024-03-23T08:50:29;10.70;;;2.03;;
20122;SDS011;10222;50.848;4.336;2024-03-23T08:52:55;10.27;;;1.60;;
20122;SDS011;10222;50.848;4.336;2024-03-23T08:55:21;6.97;;;1.97;;
20122;SDS011;10222;50.848;4.336;2024-03-23T08:57:47;5.07;;;1.83;;
20122;SDS011;10222;50.848;4.336;2024-03-23T09:00:14;8.50;;;2.23;;
20122;SDS011;10222;50.848;4.336;2024-03-23T09:02:40;8.10;;;1.83;;
20122;SDS011;10222;50.848;4.336;2024-03-23T09:05:06;7.97;;;2.20;;
20122;SDS011;10222;50.848;4.336;2024-03-23T09:07:32;6.73;;;2.00;;
20122;SDS011;10222;50.848;4.336;2024-03-23T09:09:58;8.50;;;1.80;;
20122;SDS011;10222;50.848;4.336;2024-03-23T09:12:24;6.97;;;1.97;;
20122;SDS011;10222;50.848;4.336;2024-03-23T09:14:50;9.40;;;2.43;;
20122;SDS011;10222;50.848;4.336;2024-03-23T09:17:18;8.70;;;1.47;;
20122;SDS011;10222;50.848;4.336;2024-03-23T09:19:44;8.53;;;2.00;;
20122;SDS011;10222;50.848;4.336;2024-03-23T09:22:10;10.83;;;2.37;;
20122;SDS011;10222;50.848;4.336;2024-03-23T09:24:36;7.50;;;2.07;;
20122;SDS011;10222;50.848;4.336;2024-03-23T09:27:02;6.97;;;1.73;;
20122;SDS011;10222;50.848;4.336;2024-03-23T09:29:28;6.77;;;2.30;;
20122;SDS011;10222;50.848;4.336;2024-03-23T09:31:54;7.67;;;3.17;;
20122;SDS011;10222;50.848;4.336;2024-03-23T09:34:20;5.50;;;2.00;;
20122;SDS011;10222;50.848;4.336;2024-03-23T09:36:47;7.37;;;2.13;;
20122;SDS011;10222;50.848;4.336;2024-03-23T09:39:13;7.30;;;2.27;;
20122;SDS011;10222;50.848;4.336;2024-03-23T09:41:39;10.10;;;2.40;;
20122;SDS011;10222;50.848;4.336;2024-03-23T09:44:06;8.80;;;2.30;;
20122;SDS011;10222;50.848;4.336;2024-03-23T09:46:32;8.43;;;2.47;;
20122;SDS011;10222;50.848;4.336;2024-03-23T09:49:01;7.13;;;2.20;;
20122;SDS011;10222;50.848;4.336;2024-03-23T09:51:29;10.80;;;2.43;;
20122;SDS011;10222;50.848;4.336;2024-03-23T09:53:55;8.70;;;2.10;;
20122;SDS011;10222;50.848;4.336;2024-03-23T09:56:23;3.57;;;2.07;;
20122;SDS011;10222;50.848;4.336;2024-03-23T09:58:49;4.70;;;2.13;;
20122;SDS011;10222;50.848;4.336;2024-03-23T10:01:15;6.93;;;1.97;;
20122;SDS011;10222;50.848;4.336;2024-03-23T10:03:43;6.27;;;2.00;;
20122;SDS011;10222;50.848;4.336;2024-03-23T10:06:09;4.37;;;2.37;;
20122;SDS011;10222;50.848;4.336;2024-03-23T10:08:35;7.20;;;2.00;;
20122;SDS011;10222;50.848;4.336;2024-03-23T10:11:14;9.43;;;2.13;;
20122;SDS011;10222;50.848;4.336;2024-03-23T10:13:43;7.53;;;2.17;;
20122;SDS011;10222;50.848;4.336;2024-03-23T10:16:11;5.73;;;1.80;;
20122;SDS011;10222;50.848;4.336;2024-03-23T10:18:37;6.47;;;1.83;;
20122;SDS011;10222;50.848;4.336;2024-03-23T10:21:07;5.93;;;2.07;;
20122;SDS011;10222;50.848;4.336;2024-03-23T10:23:40;4.40;;;1.77;;
20122;SDS011;10222;50.848;4.336;2024-03-23T10:28:52;6.13;;;1.43;;
20122;SDS011;10222;50.848;4.336;2024-03-23T10:31:18;6.07;;;1.70;;
20122;SDS011;10222;50.848;4.336;2024-03-23T10:33:47;4.23;;;1.27;;
20122;SDS011;10222;50.848;4.336;2024-03-23T10:36:14;6.43;;;1.70;;
20122;SDS011;10222;50.848;4.336;2024-03-23T10:38:41;10.23;;;1.53;;
20122;SDS011;10222;50.848;4.336;2024-03-23T10:41:08;2.80;;;1.00;;
20122;SDS011;10222;50.848;4.336;2024-03-23T10:43:35;6.43;;;1.73;;
20122;SDS011;10222;50.848;4.336;2024-03-23T10:46:01;4.07;;;1.27;;
20122;SDS011;10222;50.848;4.336;2024-03-23T10:48:27;4.73;;;1.60;;
20122;SDS011;10222;50.848;4.336;2024-03-23T10:50:53;6.77;;;1.23;;
20122;SDS011;10222;50.848;4.336;2024-03-23T10:53:21;4.07;;;1.10;;
20122;SDS011;10222;50.848;4.336;2024-03-23T10:55:48;9.27;;;2.37;;
20122;SDS011;10222;50.848;4.336;2024-03-23T10:58:14;6.87;;;1.50;;
20122;SDS011;10222;50.848;4.336;2024-03-23T11:00:40;3.70;;;1.10;;
20122;SDS011;10222;50.848;4.336;2024-03-23T11:05:51;4.27;;;1.27;;
20122;SDS011;10222;50.848;4.336;2024-03-23T11:13:41;4.47;;;1.00;;
20122;SDS011;10222;50.848;4.336;2024-03-23T11:16:16;11.67;;;1.30;;
20122;SDS011;10222;50.848;4.336;2024-03-23T11:18:43;5.50;;;1.20;;
20122;SDS011;10222;50.848;4.336;2024-03-23T11:21:10;5.83;;;1.17;;
20122;SDS011;10222;50.848;4.336;2024-03-23T11:23:36;4.20;;;1.17;;
20122;SDS011;10222;50.848;4.336;2024-03-23T11:26:06;3.77;;;0.90;;
20122;SDS011;10222;50.848;4.336;2024-03-23T11:28:33;5.50;;;0.90;;
20122;SDS011;10222;50.848;4.336;2024-03-23T11:30:59;7.77;;;1.40;;
20122;SDS011;10222;50.848;4.336;2024-03-23T11:33:26;6.33;;;1.67;;
20122;SDS011;10222;50.848;4.336;2024-03-23T11:35:52;2.90;;;0.93;;
20122;SDS011;10222;50.848;4.336;2024-03-23T11:38:18;4.33;;;1.37;;
20122;SDS011;10222;50.848;4.336;2024-03-23T11:40:48;3.83;;;1.07;;
20122;SDS011;10222;50.848;4.336;2024-03-23T11:43:15;5.80;;;1.77;;
20122;SDS011;10222;50.848;4.336;2024-03-23T11:48:11;1.30;;;0.80;;
20122;SDS011;10222;50.848;4.336;2024-03-23T11:50:41;2.87;;;0.80;;
20122;SDS011;10222;50.848;4.336;2024-03-23T11:53:09;4.23;;;1.10;;
20122;SDS011;10222;50.848;4.336;2024-03-23T11:55:39;2.30;;;0.70;;
20122;SDS011;10222;50.848;4.336;2024-03-23T11:58:05;2.80;;;1.10;;
20122;SDS011;10222;50.848;4.336;2024-03-23T12:00:31;4.47;;;1.50;;
20122;SDS011;10222;50.848;4.336;2024-03-23T12:03:01;6.03;;;1.20;;
20122;SDS011;10222;50.848;4.336;2024-03-23T12:05:28;4.27;;;0.90;;
20122;SDS011;10222;50.848;4.336;2024-03-23T12:07:55;4.30;;;1.20;;
20122;SDS011;10222;50.848;4.336;2024-03-23T12:10:21;7.43;;;1.20;;
20122;SDS011;10222;50.848;4.336;2024-03-23T12:12:59;3.33;;;0.90;;
20122;SDS011;10222;50.848;4.336;2024-03-23T12:15:25;4.30;;;0.90;;
20122;SDS011;10222;50.848;4.336;2024-03-23T12:17:51;2.70;;;0.93;;
20122;SDS011;10222;50.848;4.336;2024-03-23T12:20:17;2.63;;;0.70;;
20122;SDS011;10222;50.848;4.336;2024-03-23T12:22:43;6.60;;;0.83;;
20122;SDS011;10222;50.848;4.336;2024-03-23T12:25:10;2.70;;;0.63;;
20122;SDS011;10222;50.848;4.336;2024-03-23T12:27:36;4.07;;;1.00;;
20122;SDS011;10222;50.848;4.336;2024-03-23T12:30:02;6.13;;;0.67;;
20122;SDS011;10222;50.848;4.336;2024-03-23T12:32:29;2.70;;;0.70;;
20122;SDS011;10222;50.848;4.336;2024-03-23T12:34:55;3.60;;;0.90;;
20122;SDS011;10222;50.848;4.336;2024-03-23T12:37:21;6.77;;;1.23;;
20122;SDS011;10222;50.848;4.336;2024-03-23T12:39:47;7.37;;;1.20;;
20122;SDS011;10222;50.848;4.336;2024-03-23T12:42:13;5.20;;;1.13;;
20122;SDS011;10222;50.848;4.336;2024-03-23T12:44:41;7.27;;;1.20;;
20122;SDS011;10222;50.848;4.336;2024-03-23T12:47:07;4.87;;;0.93;;
20122;SDS011;10222;50.848;4.336;2024-03-23T12:49:33;4.50;;;1.10;;
20122;SDS011;10222;50.848;4.336;2024-03-23T12:51:59;5.10;;;1.00;;
20122;SDS011;10222;50.848;4.336;2024-03-23T12:54:26;2.37;;;0.80;;
20122;SDS011;10222;50.848;4.336;2024-03-23T12:56:52;3.13;;;0.90;;
20122;SDS011;10222;50.848;4.336;2024-03-23T12:59:18;2.97;;;0.50;;
20122;SDS011;10222;50.848;4.336;2024-03-23T13:01:45;2.37;;;0.50;;
20122;SDS011;10222;50.848;4.336;2024-03-23T13:04:11;4.53;;;0.80;;
20122;SDS011;10222;50.848;4.336;2024-03-23T13:06:37;2.27;;;0.73;;
20122;SDS011;10222;50.848;4.336;2024-03-23T13:09:03;2.87;;;0.60;;
20122;SDS011;10222;50.848;4.336;2024-03-23T13:11:30;2.13;;;0.60;;
20122;SDS011;10222;50.848;4.336;2024-03-23T13:13:56;4.47;;;0.70;;
20122;SDS011;10222;50.848;4.336;2024-03-23T13:16:22;2.53;;;0.60;;
20122;SDS011;10222;50.848;4.336;2024-03-23T13:18:48;2.50;;;0.90;;
20122;SDS011;10222;50.848;4.336;2024-03-23T13:21:14;1.33;;;0.50;;
20122;SDS011;10222;50.848;4.336;2024-03-23T13:23:40;4.50;;;0.60;;
20122;SDS011;10222;50.848;4.336;2024-03-23T13:26:07;1.70;;;0.57;;
20122;SDS011;10222;50.848;4.336;2024-03-23T13:28:33;4.87;;;0.80;;
20122;SDS011;10222;50.848;4.336;2024-03-23T13:31:01;2.83;;;0.70;;
20122;SDS011;10222;50.848;4.336;2024-03-23T13:33:28;3.77;;;0.70;;
20122;SDS011;10222;50.848;4.336;2024-03-23T13:35:55;3.73;;;0.80;;
20122;SDS011;10222;50.848;4.336;2024-03-23T13:38:22;6.87;;;0.90;;
20122;SDS011;10222;50.848;4.336;2024-03-23T13:40:58;6.20;;;0.77;;
20122;SDS011;10222;50.848;4.336;2024-03-23T13:43:25;4.57;;;1.00;;
20122;SDS011;10222;50.848;4.336;2024-03-23T13:45:53;3.03;;;0.93;;
20122;SDS011;10222;50.848;4.336;2024-03-23T13:48:19;4.03;;;1.40;;
20122;SDS011;10222;50.848;4.336;2024-03-23T13:50:46;4.33;;;1.00;;
20122;SDS011;10222;50.848;4.336;2024-03-23T13:53:15;2.97;;;0.60;;
20122;SDS011;10222;50.848;4.336;2024-03-23T13:55:47;5.37;;;1.10;;
20122;SDS011;10222;50.848;4.336;2024-03-23T13:58:14;5.23;;;0.80;;
20122;SDS011;10222;50.848;4.336;2024-03-23T14:00:40;6.43;;;1.03;;
20122;SDS011;10222;50.848;4.336;2024-03-23T14:03:07;2.20;;;0.80;;
20122;SDS011;10222;50.848;4.336;2024-03-23T14:05:33;3.50;;;0.73;;
20122;SDS011;10222;50.848;4.336;2024-03-23T14:07:59;6.80;;;1.03;;
20122;SDS011;10222;50.848;4.336;2024-03-23T14:10:26;7.77;;;0.90;;
20122;SDS011;10222;50.848;4.336;2024-03-23T14:12:54;5.13;;;1.17;;
20122;SDS011;10222;50.848;4.336;2024-03-23T14:15:20;2.10;;;0.73;;
20122;SDS011;10222;50.848;4.336;2024-03-23T14:17:46;4.63;;;0.73;;
20122;SDS011;10222;50.848;4.336;2024-03-23T14:20:12;4.10;;;0.90;;
20122;SDS011;10222;50.848;4.336;2024-03-23T14:22:40;2.13;;;1.00;;
20122;SDS011;10222;50.848;4.336;2024-03-23T14:25:07;5.17;;;1.20;;
20122;SDS011;10222;50.848;4.336;2024-03-23T14:27:33;5.07;;;1.17;;
20122;SDS011;10222;50.848;4.336;2024-03-23T14:30:02;3.73;;;0.90;;
20122;SDS011;10222;50.848;4.336;2024-03-23T14:32:28;5.40;;;0.80;;
20122;SDS011;10222;50.848;4.336;2024-03-23T14:34:58;4.93;;;1.23;;
20122;SDS011;10222;50.848;4.336;2024-03-23T14:37:24;6.40;;;0.90;;
20122;SDS011;10222;50.848;4.336;2024-03-23T14:39:50;4.60;;;0.97;;
20122;SDS011;10222;50.848;4.336;2024-03-23T14:42:16;5.47;;;1.53;;
20122;SDS011;10222;50.848;4.336;2024-03-23T14:44:42;7.33;;;1.07;;
20122;SDS011;10222;50.848;4.336;2024-03-23T14:47:08;7.40;;;1.30;;
20122;SDS011;10222;50.848;4.336;2024-03-23T14:49:34;5.83;;;1.03;;
20122;SDS011;10222;50.848;4.336;2024-03-23T14:52:01;4.70;;;1.00;;
20122;SDS011;10222;50.848;4.336;2024-03-23T14:54:27;2.83;;;0.93;;
20122;SDS011;10222;50.848;4.336;2024-03-23T14:56:53;5.77;;;1.00;;
20122;SDS011;10222;50.848;4.336;2024-03-23T14:59:19;5.77;;;1.10;;
20122;SDS011;10222;50.848;4.336;2024-03-23T15:01:45;3.03;;;0.90;;
20122;SDS011;10222;50.848;4.336;2024-03-23T15:04:11;2.17;;;0.80;;
20122;SDS011;10222;50.848;4.336;2024-03-23T15:06:37;3.27;;;1.10;;
20122;SDS011;10222;50.848;4.336;2024-03-23T15:09:03;3.60;;;1.03;;
20122;SDS011;10222;50.848;4.336;2024-03-23T15:11:32;4.47;;;0.80;;
20122;SDS011;10222;50.848;4.336;2024-03-23T15:13:58;6.30;;;1.00;;
20122;SDS011;10222;50.848;4.336;2024-03-23T15:16:25;4.10;;;0.90;;
20122;SDS011;10222;50.848;4.336;2024-03-23T15:18:51;5.13;;;1.00;;
20122;SDS011;10222;50.848;4.336;2024-03-23T15:21:17;4.57;;;0.90;;
20122;SDS011;10222;50.848;4.336;2024-03-23T15:23:46;6.30;;;1.23;;
20122;SDS011;10222;50.848;4.336;2024-03-23T15:26:12;4.43;;;1.50;;
20122;SDS011;10222;50.848;4.336;2024-03-23T15:28:38;4.47;;;0.90;;
20122;SDS011;10222;50.848;4.336;2024-03-23T15:31:25;3.10;;;1.07;;
20122;SDS011;10222;50.848;4.336;2024-03-23T15:33:51;3.63;;;1.03;;
20122;SDS011;10222;50.848;4.336;2024-03-23T15:36:17;4.80;;;1.10;;
20122;SDS011;10222;50.848;4.336;2024-03-23T15:38:44;4.03;;;0.93;;
20122;SDS011;10222;50.848;4.336;2024-03-23T15:41:10;4.07;;;1.07;;
20122;SDS011;10222;50.848;4.336;2024-03-23T15:43:36;5.70;;;1.07;;
20122;SDS011;10222;50.848;4.336;2024-03-23T15:46:03;6.07;;;1.67;;
20122;SDS011;10222;50.848;4.336;2024-03-23T15:48:31;6.23;;;1.10;;
20122;SDS011;10222;50.848;4.336;2024-03-23T15:50:57;3.80;;;0.90;;
20122;SDS011;10222;50.848;4.336;2024-03-23T15:53:24;5.33;;;1.57;;